Time;durP1;ratioP1;P1;durP2;ratioP2;P2;SDS_P1;SDS_P2;PMS_P1;PMS_P2;Temp;Humidity;BMP_temperature;BMP_pressure;BME280_temperature;BME280_humidity;BME280_pressure;Samples;Min_cycle;Max_cycle;Signal;HPM_P1;HPM_P2
2022/02/24 00:00:08;;;;;;;13.98;2.92;;;8.00;99.90;;;;;;5112966;28;20096;-76
2022/02/24 00:02:33;;;;;;;10.88;2.30;;;8.10;99.90;;;;;;5113631;28;20040;-76
2022/02/24 00:04:59;;;;;;;8.80;2.33;;;8.10;99.90;;;;;;5112649;28;20032;-76
2022/02/24 00:07:25;;;;;;;11.57;2.38;;;8.00;99.90;;;;;;5114080;28;20023;-77
2022/02/24 00:09:51;;;;;;;8.18;2.78;;;8.10;99.90;;;;;;5113371;28;20407;-76
2022/02/24 00:12:17;;;;;;;10.10;2.95;;;8.10;99.90;;;;;;5113256;28;20023;-75
2022/02/24 00:14:42;;;;;;;13.18;1.85;;;8.00;99.90;;;;;;5113680;28;20047;-77
2022/02/24 00:17:08;;;;;;;9.23;3.05;;;8.10;99.90;;;;;;5113385;28;20039;-77
2022/02/24 00:19:34;;;;;;;7.35;2.22;;;8.10;99.90;;;;;;5112787;28;20023;-77
2022/02/24 00:22:03;;;;;;;12.63;2.78;;;8.20;99.90;;;;;;5112877;28;20084;-75
2022/02/24 00:24:32;;;;;;;12.20;2.05;;;8.20;99.90;;;;;;5113334;28;20050;-76
2022/02/24 00:26:57;;;;;;;6.35;2.50;;;8.20;99.90;;;;;;5112102;28;20039;-76
2022/02/24 00:29:23;;;;;;;10.77;2.33;;;8.20;99.90;;;;;;5113330;28;20020;-77
2022/02/24 00:31:49;;;;;;;6.95;2.38;;;8.20;99.90;;;;;;5113193;28;20028;-77
2022/02/24 00:34:15;;;;;;;12.93;2.58;;;8.20;99.90;;;;;;5112765;28;20024;-76
2022/02/24 00:36:41;;;;;;;12.65;1.95;;;8.20;99.90;;;;;;5113504;28;20050;-76
2022/02/24 00:39:07;;;;;;;14.30;2.40;;;8.30;99.90;;;;;;5113662;28;20450;-77
2022/02/24 00:41:32;;;;;;;15.07;2.03;;;8.20;99.90;;;;;;5112814;28;20047;-77
2022/02/24 00:43:58;;;;;;;7.93;2.22;;;8.20;99.90;;;;;;5113107;28;20327;-77
2022/02/24 00:46:24;;;;;;;18.17;3.00;;;8.10;99.90;;;;;;5113850;28;20479;-76
2022/02/24 00:48:49;;;;;;;11.25;2.10;;;8.10;99.90;;;;;;5112236;28;20421;-75
2022/02/24 00:51:15;;;;;;;16.30;3.13;;;8.10;99.90;;;;;;5112933;28;20024;-76
2022/02/24 00:53:41;;;;;;;10.73;2.20;;;8.10;99.90;;;;;;5112645;28;20020;-76
2022/02/24 00:56:11;;;;;;;18.23;4.50;;;8.20;99.90;;;;;;5112052;28;20425;-76
2022/02/24 00:58:37;;;;;;;15.75;2.53;;;8.10;99.90;;;;;;5112646;28;20486;-76
2022/02/24 01:01:03;;;;;;;10.38;2.58;;;8.20;99.90;;;;;;5112585;28;20027;-76
2022/02/24 01:03:29;;;;;;;10.60;2.22;;;8.20;99.90;;;;;;5112821;28;20038;-77
2022/02/24 01:05:54;;;;;;;9.85;3.13;;;8.20;99.90;;;;;;5112269;28;20425;-76
2022/02/24 01:08:20;;;;;;;21.73;3.83;;;8.20;99.90;;;;;;5111790;28;20059;-76
2022/02/24 01:10:45;;;;;;;7.95;2.17;;;8.20;99.90;;;;;;5113231;28;20375;-76
2022/02/24 01:13:11;;;;;;;9.48;2.63;;;8.20;99.90;;;;;;5112659;28;20027;-75
2022/02/24 01:15:38;;;;;;;9.77;2.60;;;8.20;99.90;;;;;;5112090;28;20032;-76
2022/02/24 01:18:05;;;;;;;13.82;2.63;;;8.20;99.90;;;;;;5112533;28;20428;-76
2022/02/24 01:20:33;;;;;;;9.65;2.33;;;8.20;99.90;;;;;;5112554;28;20028;-76
2022/02/24 01:22:59;;;;;;;9.85;2.65;;;8.30;99.90;;;;;;5111557;28;20463;-76
2022/02/24 01:25:24;;;;;;;11.55;2.53;;;8.30;99.90;;;;;;5112839;28;20095;-76
2022/02/24 01:27:52;;;;;;;13.15;3.30;;;8.30;99.90;;;;;;5112531;28;20023;-77
2022/02/24 01:30:18;;;;;;;12.13;2.58;;;8.30;99.90;;;;;;5112246;28;20053;-76
2022/02/24 01:32:44;;;;;;;16.00;2.53;;;8.20;99.90;;;;;;5112463;28;20052;-76
2022/02/24 01:35:09;;;;;;;13.88;2.63;;;8.30;99.90;;;;;;5112301;28;20020;-76
2022/02/24 01:37:35;;;;;;;6.18;2.05;;;8.30;99.90;;;;;;5112114;28;20046;-76
2022/02/24 01:40:01;;;;;;;15.90;2.72;;;8.30;99.90;;;;;;5112551;28;20016;-78
2022/02/24 01:42:27;;;;;;;14.93;3.33;;;8.40;99.90;;;;;;5117256;28;20035;-74
2022/02/24 01:44:52;;;;;;;13.48;2.60;;;8.30;99.90;;;;;;5113196;28;20027;-76
2022/02/24 01:47:18;;;;;;;9.27;2.65;;;8.40;99.90;;;;;;5113034;28;20035;-76
2022/02/24 01:49:43;;;;;;;14.13;2.75;;;8.40;99.90;;;;;;5113053;28;20031;-77
2022/02/24 01:52:12;;;;;;;14.27;3.03;;;8.40;99.90;;;;;;5112399;28;20023;-76
2022/02/24 01:54:39;;;;;;;9.52;2.45;;;8.40;99.90;;;;;;5113906;28;20094;-77
2022/02/24 01:57:05;;;;;;;8.57;2.70;;;8.30;99.90;;;;;;5112777;28;20028;-75
2022/02/24 01:59:31;;;;;;;9.63;2.70;;;8.30;99.90;;;;;;5111831;28;20527;-76
2022/02/24 02:01:58;;;;;;;11.38;2.53;;;8.30;99.90;;;;;;5112169;28;20416;-74
2022/02/24 02:04:24;;;;;;;9.25;3.08;;;8.30;99.90;;;;;;5111777;28;20024;-75
2022/02/24 02:06:50;;;;;;;14.02;2.85;;;8.30;99.90;;;;;;5113105;28;20036;-76
2022/02/24 02:09:17;;;;;;;16.27;2.63;;;8.30;99.90;;;;;;5114909;28;20040;-76
2022/02/24 02:11:43;;;;;;;12.63;2.28;;;8.30;99.90;;;;;;5115528;28;20027;-76
2022/02/24 02:14:10;;;;;;;9.18;2.35;;;8.30;99.90;;;;;;5116323;28;20024;-78
2022/02/24 02:16:35;;;;;;;11.15;2.22;;;8.30;99.90;;;;;;5115825;28;20028;-77
2022/02/24 02:19:01;;;;;;;13.95;2.60;;;8.30;99.90;;;;;;5114938;28;20069;-77
2022/02/24 02:21:31;;;;;;;13.35;2.90;;;8.30;99.90;;;;;;5115630;28;20043;-77
2022/02/24 02:23:56;;;;;;;8.20;2.65;;;8.30;99.90;;;;;;5115295;28;20076;-76
2022/02/24 02:26:22;;;;;;;9.27;2.85;;;8.30;99.90;;;;;;5114780;28;20036;-75
2022/02/24 02:28:47;;;;;;;11.20;2.42;;;8.30;99.90;;;;;;5115063;28;20030;-76
2022/02/24 02:31:13;;;;;;;12.82;4.22;;;8.30;99.90;;;;;;5115038;28;20027;-76
2022/02/24 02:33:38;;;;;;;17.92;3.10;;;8.30;99.90;;;;;;5114934;28;20011;-76
2022/02/24 02:36:04;;;;;;;9.50;2.22;;;8.30;99.90;;;;;;5115751;28;20020;-77
2022/02/24 02:38:30;;;;;;;10.40;2.78;;;8.30;99.90;;;;;;5115674;28;20016;-76
2022/02/24 02:40:55;;;;;;;14.15;2.97;;;8.30;99.90;;;;;;5114920;28;20027;-77
2022/02/24 02:43:21;;;;;;;13.60;2.42;;;8.30;99.90;;;;;;5115016;28;20019;-76
2022/02/24 02:45:50;;;;;;;15.85;2.45;;;8.30;99.90;;;;;;5114537;28;20040;-75
2022/02/24 02:48:15;;;;;;;9.65;2.67;;;8.30;99.90;;;;;;5114391;28;20379;-75
2022/02/24 02:50:41;;;;;;;5.90;1.85;;;8.30;99.90;;;;;;5114924;28;20024;-75
2022/02/24 02:53:06;;;;;;;11.10;2.42;;;8.20;99.90;;;;;;5115215;28;20391;-76
2022/02/24 02:55:34;;;;;;;11.27;2.42;;;8.30;99.90;;;;;;5114433;28;20023;-76
2022/02/24 02:58:00;;;;;;;14.07;2.83;;;8.30;99.90;;;;;;5115365;28;20027;-77
2022/02/24 03:00:25;;;;;;;9.68;2.70;;;8.30;99.90;;;;;;5115424;28;20032;-77
2022/02/24 03:02:51;;;;;;;13.48;2.28;;;8.30;99.90;;;;;;5114629;28;20080;-77
2022/02/24 03:05:17;;;;;;;14.05;3.42;;;8.30;99.90;;;;;;5115543;28;20118;-75
2022/02/24 03:07:42;;;;;;;15.20;2.90;;;8.40;99.90;;;;;;5114132;28;20106;-74
2022/02/24 03:10:08;;;;;;;11.45;2.78;;;8.30;99.90;;;;;;5115924;28;20062;-78
2022/02/24 03:12:35;;;;;;;6.63;2.00;;;8.20;99.90;;;;;;5114835;28;20027;-76
2022/02/24 03:15:02;;;;;;;10.48;2.65;;;8.20;99.90;;;;;;5113883;28;20110;-76
2022/02/24 03:17:28;;;;;;;10.50;2.60;;;8.20;99.90;;;;;;5114684;28;20028;-77
2022/02/24 03:19:53;;;;;;;13.50;3.25;;;8.20;99.90;;;;;;5113039;28;20032;-76
2022/02/24 03:22:19;;;;;;;11.07;2.75;;;8.20;99.90;;;;;;5114153;28;20016;-76
2022/02/24 03:24:44;;;;;;;10.18;2.85;;;8.30;99.90;;;;;;5114297;28;20035;-76
2022/02/24 03:27:10;;;;;;;10.60;2.35;;;8.30;99.90;;;;;;5114254;28;20077;-76
2022/02/24 03:29:35;;;;;;;9.85;2.72;;;8.20;99.90;;;;;;5113393;28;20019;-75
2022/02/24 03:32:02;;;;;;;10.02;2.85;;;8.30;99.90;;;;;;5114204;28;20101;-76
2022/02/24 03:34:29;;;;;;;6.45;2.28;;;8.20;99.90;;;;;;5114955;28;20024;-75
2022/02/24 03:36:55;;;;;;;4.68;2.10;;;8.30;99.90;;;;;;5114187;28;20031;-76
2022/02/24 03:39:20;;;;;;;9.15;2.15;;;8.30;99.90;;;;;;5114874;28;20016;-75
2022/02/24 03:41:46;;;;;;;10.40;2.30;;;8.30;99.90;;;;;;5115979;27;20123;-77
2022/02/24 03:44:11;;;;;;;13.57;2.42;;;8.40;99.90;;;;;;5133957;27;20103;-78
2022/02/24 03:46:37;;;;;;;12.00;2.63;;;8.30;99.90;;;;;;5134448;27;20027;-76
2022/02/24 03:49:03;;;;;;;14.25;2.40;;;8.30;99.90;;;;;;5134237;27;20023;-77
2022/02/24 03:51:28;;;;;;;12.77;2.65;;;8.30;99.90;;;;;;5133761;27;20122;-77
2022/02/24 03:53:54;;;;;;;12.32;2.72;;;8.30;99.90;;;;;;5134367;27;20093;-75
2022/02/24 03:56:19;;;;;;;7.72;2.20;;;8.30;99.90;;;;;;5134064;27;20031;-75
2022/02/24 03:58:45;;;;;;;6.15;1.85;;;8.40;99.90;;;;;;5133206;27;20098;-76
2022/02/24 04:01:12;;;;;;;11.52;3.22;;;8.30;99.90;;;;;;5134334;27;20034;-75
2022/02/24 04:03:37;;;;;;;12.77;3.47;;;8.40;99.90;;;;;;5134212;27;20034;-75
2022/02/24 04:06:03;;;;;;;14.45;2.63;;;8.30;99.90;;;;;;5133648;27;20027;-77
2022/02/24 04:08:28;;;;;;;11.52;3.13;;;8.40;99.90;;;;;;5134249;27;20034;-77
2022/02/24 04:10:55;;;;;;;12.27;2.72;;;8.30;99.90;;;;;;5133304;27;20449;-76
2022/02/24 04:13:21;;;;;;;8.50;2.97;;;8.40;99.90;;;;;;5135144;27;20027;-76
2022/02/24 04:15:47;;;;;;;10.98;2.53;;;8.30;99.90;;;;;;5137296;27;20025;-76
2022/02/24 04:18:13;;;;;;;15.48;2.53;;;8.30;99.90;;;;;;5134709;27;20322;-76
2022/02/24 04:20:38;;;;;;;11.38;3.03;;;8.40;99.90;;;;;;5133566;27;20107;-75
2022/02/24 04:23:04;;;;;;;9.00;2.63;;;8.40;99.90;;;;;;5134358;27;20389;-76
2022/02/24 04:25:29;;;;;;;15.20;2.10;;;8.40;99.90;;;;;;5133732;27;20031;-76
2022/02/24 04:27:55;;;;;;;11.60;2.60;;;8.40;99.90;;;;;;5140901;27;20034;-77
2022/02/24 04:30:21;;;;;;;10.85;2.40;;;8.40;99.90;;;;;;5140944;27;20028;-76
2022/02/24 04:32:47;;;;;;;6.25;2.45;;;8.40;99.90;;;;;;5132944;27;20023;-77
2022/02/24 04:35:14;;;;;;;12.75;3.40;;;8.30;99.90;;;;;;5134112;27;20152;-75
2022/02/24 04:37:40;;;;;;;6.75;2.45;;;8.30;99.90;;;;;;5134123;27;20054;-75
2022/02/24 04:40:07;;;;;;;15.85;2.72;;;8.30;99.90;;;;;;5133065;27;20429;-73
2022/02/24 04:42:33;;;;;;;12.45;2.53;;;8.30;99.90;;;;;;5133254;27;20471;-75
2022/02/24 04:44:59;;;;;;;8.77;2.60;;;8.40;99.90;;;;;;5133568;27;20057;-74
2022/02/24 04:47:26;;;;;;;9.18;2.17;;;8.40;99.90;;;;;;5132970;27;20030;-74
2022/02/24 04:49:52;;;;;;;5.25;2.30;;;8.40;99.90;;;;;;5133226;27;20379;-76
2022/02/24 04:52:17;;;;;;;9.38;2.13;;;8.30;99.90;;;;;;5133364;27;20026;-75
2022/02/24 04:54:43;;;;;;;11.15;2.33;;;8.40;99.90;;;;;;5132406;27;20463;-77
2022/02/24 04:57:09;;;;;;;6.78;2.25;;;8.30;99.90;;;;;;5133052;27;20033;-75
2022/02/24 04:59:34;;;;;;;16.73;4.45;;;8.30;99.90;;;;;;5132979;27;20056;-76
2022/02/24 05:02:00;;;;;;;8.77;2.30;;;8.30;99.90;;;;;;5132589;28;20019;-76
2022/02/24 05:04:25;;;;;;;9.85;1.95;;;8.30;99.90;;;;;;5133218;27;20050;-76
2022/02/24 05:06:51;;;;;;;9.40;1.98;;;8.30;99.90;;;;;;5132755;28;20092;-76
2022/02/24 05:09:16;;;;;;;10.95;2.45;;;8.30;99.90;;;;;;5132583;27;20043;-75
2022/02/24 05:11:42;;;;;;;12.18;2.22;;;8.40;99.90;;;;;;5133139;27;20084;-75
2022/02/24 05:14:08;;;;;;;9.88;1.98;;;8.30;99.90;;;;;;5133401;28;20431;-74
2022/02/24 05:16:34;;;;;;;8.70;2.22;;;8.30;99.90;;;;;;5133399;28;20042;-76
2022/02/24 05:18:59;;;;;;;14.52;2.63;;;8.30;99.90;;;;;;5133424;28;20019;-75
2022/02/24 05:21:25;;;;;;;15.77;2.53;;;8.30;99.90;;;;;;5132246;28;20027;-75
2022/02/24 05:23:51;;;;;;;10.73;2.28;;;8.30;99.90;;;;;;5133159;28;20023;-75
2022/02/24 05:26:17;;;;;;;12.68;2.33;;;8.30;99.90;;;;;;5132881;27;20180;-76
2022/02/24 05:28:42;;;;;;;15.38;3.03;;;8.30;99.90;;;;;;5132060;28;20306;-76
2022/02/24 05:31:08;;;;;;;8.88;2.20;;;8.30;99.90;;;;;;5133104;28;20027;-75
2022/02/24 05:33:34;;;;;;;11.68;2.58;;;8.30;99.90;;;;;;5132879;28;20471;-76
2022/02/24 05:36:01;;;;;;;7.32;2.20;;;8.30;99.90;;;;;;5132237;28;20027;-75
2022/02/24 05:38:26;;;;;;;11.68;2.35;;;8.30;99.90;;;;;;5132866;28;20544;-76
2022/02/24 05:40:52;;;;;;;11.32;2.20;;;8.40;99.90;;;;;;5132793;28;20111;-75
2022/02/24 05:43:18;;;;;;;9.48;2.67;;;8.30;99.90;;;;;;5133141;27;20023;-76
2022/02/24 05:45:46;;;;;;;6.38;1.98;;;8.30;99.90;;;;;;5136350;27;20046;-75
2022/02/24 05:48:12;;;;;;;9.50;2.47;;;8.40;99.90;;;;;;5137314;27;20475;-75
2022/02/24 05:50:38;;;;;;;12.05;2.33;;;8.40;99.90;;;;;;5136176;27;20106;-76
2022/02/24 05:53:04;;;;;;;8.48;2.20;;;8.30;99.90;;;;;;5136538;27;20026;-75
2022/02/24 05:55:30;;;;;;;13.90;2.60;;;8.30;99.90;;;;;;5136326;27;20016;-75
2022/02/24 05:57:56;;;;;;;17.42;2.92;;;8.30;99.90;;;;;;5135774;27;20027;-77
2022/02/24 06:00:22;;;;;;;11.02;2.40;;;8.20;99.90;;;;;;5136481;27;20420;-74
2022/02/24 06:02:48;;;;;;;9.00;2.13;;;8.30;99.90;;;;;;5136592;27;20042;-74
2022/02/24 06:05:14;;;;;;;11.80;2.22;;;8.30;99.90;;;;;;5135775;27;20034;-76
2022/02/24 06:07:41;;;;;;;8.27;2.05;;;8.20;99.90;;;;;;5136105;27;20027;-75
2022/02/24 06:10:08;;;;;;;11.40;2.75;;;8.20;99.90;;;;;;5136439;27;20050;-76
2022/02/24 06:12:33;;;;;;;10.57;2.13;;;8.20;99.90;;;;;;5136403;27;20023;-76
2022/02/24 06:14:59;;;;;;;7.50;2.45;;;8.20;99.90;;;;;;5136619;27;20440;-76
2022/02/24 06:17:24;;;;;;;18.15;2.60;;;8.30;99.90;;;;;;5136575;27;20076;-76
2022/02/24 06:19:50;;;;;;;10.70;2.15;;;8.30;99.90;;;;;;5135620;27;20027;-76
2022/02/24 06:22:15;;;;;;;12.57;2.83;;;8.30;99.90;;;;;;5135969;27;20070;-76
2022/02/24 06:24:41;;;;;;;17.75;2.85;;;8.20;99.90;;;;;;5135058;27;20365;-76
2022/02/24 06:27:06;;;;;;;9.05;2.20;;;8.20;99.90;;;;;;5136275;27;20083;-76
2022/02/24 06:29:32;;;;;;;13.38;2.85;;;8.20;99.90;;;;;;5136323;27;20386;-76
2022/02/24 06:31:57;;;;;;;10.60;2.05;;;8.20;99.90;;;;;;5134714;27;20537;-76
2022/02/24 06:34:23;;;;;;;9.63;2.47;;;8.20;99.90;;;;;;5135580;27;20155;-74
2022/02/24 06:36:49;;;;;;;15.10;3.20;;;8.20;99.90;;;;;;5135709;27;20098;-75
2022/02/24 06:39:15;;;;;;;13.55;2.72;;;8.10;99.90;;;;;;5135411;27;20027;-74
2022/02/24 06:41:41;;;;;;;8.25;2.47;;;8.10;99.90;;;;;;5135891;27;20103;-76
2022/02/24 06:44:07;;;;;;;8.95;2.30;;;8.20;99.90;;;;;;5123676;27;20398;-76
2022/02/24 06:46:32;;;;;;;8.57;2.90;;;8.20;99.90;;;;;;5117301;27;20382;-75
2022/02/24 06:48:58;;;;;;;14.23;2.85;;;8.20;99.90;;;;;;5114634;28;20038;-76
2022/02/24 06:51:23;;;;;;;12.15;2.05;;;8.20;99.90;;;;;;5119220;27;20469;-76
2022/02/24 06:53:49;;;;;;;8.27;2.45;;;8.20;99.90;;;;;;5115318;27;20031;-77
2022/02/24 06:56:14;;;;;;;9.55;2.63;;;8.20;99.90;;;;;;5113881;27;20039;-75
2022/02/24 06:58:40;;;;;;;7.57;2.17;;;8.20;99.90;;;;;;5113708;27;20008;-75
2022/02/24 07:01:06;;;;;;;11.00;1.92;;;8.10;99.90;;;;;;5113933;27;20058;-78
2022/02/24 07:03:31;;;;;;;12.57;2.60;;;8.10;99.90;;;;;;5114677;27;20023;-76
2022/02/24 07:05:57;;;;;;;8.25;2.40;;;8.10;99.90;;;;;;5122081;27;20039;-76
2022/02/24 07:08:22;;;;;;;5.75;2.10;;;8.10;99.90;;;;;;5123836;27;20012;-75
2022/02/24 07:10:48;;;;;;;9.50;2.30;;;8.10;99.90;;;;;;5127062;27;20044;-76
2022/02/24 07:13:13;;;;;;;9.77;2.38;;;8.20;99.90;;;;;;5121961;27;20026;-76
2022/02/24 07:15:39;;;;;;;8.52;2.65;;;8.10;99.90;;;;;;5115243;27;20062;-76
2022/02/24 07:18:05;;;;;;;8.40;1.90;;;8.10;99.90;;;;;;5112759;28;20100;-76
2022/02/24 07:20:31;;;;;;;6.53;2.25;;;8.10;99.90;;;;;;5116329;27;20462;-77
2022/02/24 07:22:56;;;;;;;8.75;2.10;;;8.10;99.90;;;;;;5112437;28;20062;-77
2022/02/24 07:25:22;;;;;;;9.35;1.85;;;8.20;99.90;;;;;;5112670;27;20383;-75
2022/02/24 07:27:49;;;;;;;4.18;1.80;;;8.20;99.90;;;;;;5112646;28;20083;-76
2022/02/24 07:30:15;;;;;;;10.05;2.38;;;8.20;99.90;;;;;;5113037;28;20038;-74
2022/02/24 07:32:41;;;;;;;9.40;2.25;;;8.20;99.90;;;;;;5112559;28;20410;-74
2022/02/24 07:35:07;;;;;;;11.43;3.00;;;8.30;99.90;;;;;;5112365;27;20020;-77
2022/02/24 07:37:33;;;;;;;7.28;2.08;;;8.30;99.90;;;;;;5111599;28;20032;-76
2022/02/24 07:39:58;;;;;;;6.80;2.33;;;8.30;99.90;;;;;;5111567;27;20027;-76
2022/02/24 07:42:24;;;;;;;10.00;3.22;;;8.30;99.90;;;;;;5115982;27;20016;-75
2022/02/24 07:44:49;;;;;;;8.52;1.73;;;8.30;99.90;;;;;;5116769;27;20455;-76
2022/02/24 07:47:15;;;;;;;10.65;1.83;;;8.40;99.90;;;;;;5115192;27;20108;-75
2022/02/24 07:49:41;;;;;;;3.72;1.27;;;8.50;99.90;;;;;;5111615;28;20030;-76
2022/02/24 07:52:07;;;;;;;5.40;1.10;;;8.50;99.90;;;;;;5115256;27;20356;-76
2022/02/24 07:54:33;;;;;;;7.18;1.80;;;8.50;99.90;;;;;;5112707;28;20027;-76
2022/02/24 07:56:59;;;;;;;7.25;1.73;;;8.60;99.90;;;;;;5112149;28;20090;-75
2022/02/24 07:59:24;;;;;;;10.15;1.88;;;8.60;99.90;;;;;;5112725;28;20020;-74
2022/02/24 08:01:50;;;;;;;13.98;3.60;;;8.60;99.90;;;;;;5112730;28;20047;-74
2022/02/24 08:04:16;;;;;;;8.23;1.75;;;8.60;99.90;;;;;;5109918;28;20031;-74
2022/02/24 08:06:42;;;;;;;4.30;1.20;;;8.70;99.90;;;;;;5111098;27;20084;-76
2022/02/24 08:09:07;;;;;;;4.07;1.08;;;8.60;99.90;;;;;;5119828;27;20036;-75
2022/02/24 08:11:34;;;;;;;6.10;1.95;;;8.70;99.90;;;;;;5114740;27;20015;-74
2022/02/24 08:14:01;;;;;;;10.40;2.00;;;8.70;99.90;;;;;;5111607;28;20074;-75
2022/02/24 08:16:26;;;;;;;6.90;1.80;;;8.70;99.90;;;;;;5111148;28;20106;-76
2022/02/24 08:18:55;;;;;;;4.72;1.55;;;8.70;99.90;;;;;;5111465;28;20094;-77
2022/02/24 08:21:22;;;;;;;5.28;1.38;;;8.70;99.90;;;;;;5131187;27;20031;-77
2022/02/24 08:23:48;;;;;;;12.65;1.75;;;8.80;99.90;;;;;;5129498;27;20047;-77
2022/02/24 08:26:13;;;;;;;10.98;2.92;;;8.80;99.90;;;;;;5114803;27;20066;-77
2022/02/24 08:28:39;;;;;;;6.22;2.22;;;8.80;99.90;;;;;;5115676;27;20019;-76
2022/02/24 08:31:05;;;;;;;10.30;2.05;;;8.90;99.90;;;;;;5114851;28;20059;-85
2022/02/24 08:33:31;;;;;;;6.88;1.55;;;8.90;99.90;;;;;;5114874;28;20015;-83
2022/02/24 08:35:56;;;;;;;9.18;1.98;;;8.90;99.90;;;;;;5116203;28;20119;-90
2022/02/24 08:38:22;;;;;;;6.47;1.88;;;8.90;99.90;;;;;;5115637;28;20024;-87
2022/02/24 08:40:47;;;;;;;4.78;2.00;;;9.00;99.90;;;;;;5115163;28;20045;-82
2022/02/24 08:43:13;;;;;;;6.13;1.85;;;9.00;99.90;;;;;;5115995;28;20028;-82
2022/02/24 08:45:39;;;;;;;7.13;1.95;;;9.10;99.90;;;;;;5114441;28;20062;-82
2022/02/24 08:48:05;;;;;;;9.52;2.13;;;9.10;99.90;;;;;;5115930;28;20019;-84
2022/02/24 08:50:30;;;;;;;11.27;2.72;;;9.10;99.90;;;;;;5114536;28;20034;-77
2022/02/24 08:52:57;;;;;;;12.77;2.47;;;9.10;99.90;;;;;;5114249;28;20087;-81
2022/02/24 08:55:23;;;;;;;5.80;1.50;;;9.10;99.90;;;;;;5117964;27;20455;-85
2022/02/24 08:57:49;;;;;;;8.07;2.72;;;9.20;99.90;;;;;;5130992;27;20015;-78
2022/02/24 09:00:16;;;;;;;6.85;2.17;;;9.20;99.90;;;;;;5128968;27;20420;-86
2022/02/24 09:02:41;;;;;;;12.18;2.42;;;9.20;99.90;;;;;;5137771;27;20039;-82
2022/02/24 09:05:07;;;;;;;6.43;1.90;;;9.20;99.90;;;;;;5138567;27;20106;-82
2022/02/24 09:07:34;;;;;;;9.45;2.03;;;9.20;99.90;;;;;;5132510;28;20027;-78
2022/02/24 09:09:59;;;;;;;10.98;1.95;;;9.20;99.90;;;;;;5132672;28;20125;-79
2022/02/24 09:12:25;;;;;;;8.80;2.30;;;9.20;99.90;;;;;;5132700;28;20535;-78
2022/02/24 09:14:50;;;;;;;15.80;2.35;;;9.20;99.90;;;;;;5131759;28;20023;-79
2022/02/24 09:17:16;;;;;;;9.90;3.05;;;9.30;99.90;;;;;;5132688;27;20068;-77
2022/02/24 09:19:45;;;;;;;8.63;2.75;;;9.30;99.90;;;;;;5137482;27;20015;-80
2022/02/24 09:22:12;;;;;;;10.30;2.22;;;9.40;99.90;;;;;;5136948;27;20023;-79
2022/02/24 09:24:41;;;;;;;12.07;2.25;;;9.40;99.90;;;;;;5139866;27;20019;-80
2022/02/24 09:27:07;;;;;;;11.85;2.67;;;9.50;99.90;;;;;;5127375;27;20027;-79
2022/02/24 09:29:34;;;;;;;13.35;2.33;;;9.50;99.90;;;;;;5133515;27;20110;-81
2022/02/24 09:32:00;;;;;;;9.25;2.33;;;9.50;99.90;;;;;;5133856;27;20049;-79
2022/02/24 09:34:26;;;;;;;9.65;2.20;;;9.60;99.90;;;;;;5135537;27;20038;-80
2022/02/24 09:36:51;;;;;;;7.93;2.22;;;9.70;99.90;;;;;;5126846;27;20025;-80
2022/02/24 09:39:17;;;;;;;12.13;3.00;;;9.80;99.90;;;;;;5128155;27;20028;-81
2022/02/24 09:41:45;;;;;;;14.68;2.47;;;9.80;99.90;;;;;;5129425;27;20509;-80
2022/02/24 09:44:11;;;;;;;10.75;2.65;;;9.80;99.90;;;;;;5135842;27;20205;-79
2022/02/24 09:46:40;;;;;;;11.55;2.08;;;9.80;99.90;;;;;;5136597;27;20267;-79
2022/02/24 09:49:07;;;;;;;15.10;2.85;;;9.90;99.90;;;;;;5135888;27;20419;-79
2022/02/24 09:51:33;;;;;;;11.88;2.65;;;9.90;99.90;;;;;;5136642;27;20114;-79
2022/02/24 09:54:00;;;;;;;11.57;2.65;;;10.00;99.90;;;;;;5136361;27;20059;-79
2022/02/24 09:56:29;;;;;;;8.30;2.40;;;10.00;99.90;;;;;;5135801;27;20169;-80
2022/02/24 09:58:56;;;;;;;17.73;2.50;;;10.00;99.90;;;;;;5136566;27;20027;-80
2022/02/24 10:01:22;;;;;;;11.75;2.58;;;9.90;99.90;;;;;;5135572;27;20026;-80
2022/02/24 10:03:57;;;;;;;7.95;2.15;;;9.80;99.90;;;;;;5135085;27;20106;-80
2022/02/24 10:06:36;;;;;;;11.38;2.47;;;9.80;99.90;;;;;;5136162;27;20401;-80
2022/02/24 10:09:02;;;;;;;12.45;2.53;;;9.70;99.90;;;;;;5135240;27;20047;-81
2022/02/24 10:11:28;;;;;;;6.03;2.78;;;9.70;99.90;;;;;;5134918;27;20087;-79
2022/02/24 10:14:05;;;;;;;13.13;2.60;;;9.70;99.90;;;;;;5135686;27;20026;-79
2022/02/24 10:16:33;;;;;;;8.52;2.45;;;9.80;99.90;;;;;;5132935;27;20119;-80
2022/02/24 10:19:11;;;;;;;11.60;3.03;;;9.80;99.90;;;;;;5135058;27;20114;-79
2022/02/24 10:21:36;;;;;;;14.98;3.38;;;9.80;99.90;;;;;;5133819;27;20063;-79
2022/02/24 10:24:02;;;;;;;14.20;3.25;;;9.90;99.90;;;;;;5134832;27;20051;-80
2022/02/24 10:26:28;;;;;;;10.55;2.60;;;10.00;99.90;;;;;;5136130;27;20027;-79
2022/02/24 10:28:58;;;;;;;12.57;2.40;;;10.00;99.90;;;;;;5135132;27;20023;-78
2022/02/24 10:31:26;;;;;;;9.17;2.97;;;10.10;99.90;;;;;;5131953;27;20039;-78
2022/02/24 10:33:53;;;;;;;10.23;2.45;;;10.10;99.90;;;;;;5136142;27;20020;-79
2022/02/24 10:36:23;;;;;;;12.20;2.83;;;10.20;99.90;;;;;;5136388;27;20027;-78
2022/02/24 10:39:05;;;;;;;7.93;1.90;;;10.20;99.90;;;;;;5136024;27;20039;-79
2022/02/24 10:41:33;;;;;;;11.43;2.15;;;10.30;99.90;;;;;;5137753;27;20360;-78
2022/02/24 10:44:18;;;;;;;8.52;2.25;;;10.40;99.90;;;;;;5138584;27;20493;-79
2022/02/24 10:46:47;;;;;;;10.70;2.50;;;10.50;99.90;;;;;;5136541;27;20023;-77
2022/02/24 10:49:25;;;;;;;12.48;2.45;;;10.60;99.90;;;;;;5136688;27;20023;-78
2022/02/24 10:52:14;;;;;;;9.90;2.47;;;10.80;99.90;;;;;;5136385;27;20538;-79
2022/02/24 10:54:41;;;;;;;10.00;2.45;;;10.80;99.90;;;;;;5132851;27;20034;-79
2022/02/24 10:57:25;;;;;;;12.23;2.78;;;10.90;99.90;;;;;;5137308;27;20026;-79
2022/02/24 11:00:00;;;;;;;8.32;2.03;;;11.00;99.90;;;;;;5136374;27;20057;-78
2022/02/24 11:02:28;;;;;;;9.82;2.58;;;11.00;99.90;;;;;;5117098;27;20019;-78
2022/02/24 11:04:54;;;;;;;8.23;2.17;;;11.00;99.90;;;;;;5135384;27;20049;-79
2022/02/24 11:07:20;;;;;;;5.13;1.60;;;11.00;99.90;;;;;;5134836;27;20035;-79
2022/02/24 11:09:48;;;;;;;3.97;2.05;;;11.00;99.90;;;;;;5134702;27;20039;-79
2022/02/24 11:12:15;;;;;;;8.10;2.10;;;11.00;99.90;;;;;;5135315;27;20030;-79
2022/02/24 11:14:42;;;;;;;5.20;1.88;;;11.10;99.90;;;;;;5135030;27;20401;-78
2022/02/24 11:17:11;;;;;;;8.95;2.20;;;11.20;99.90;;;;;;5134877;27;20046;-78
2022/02/24 11:19:51;;;;;;;12.63;2.03;;;11.30;99.90;;;;;;5137422;27;20023;-78
2022/02/24 11:22:17;;;;;;;12.60;2.28;;;11.30;99.90;;;;;;5121548;27;20451;-77
2022/02/24 11:24:44;;;;;;;11.70;2.38;;;11.30;99.90;;;;;;5117312;28;20383;-79
2022/02/24 11:27:27;;;;;;;12.68;2.40;;;11.20;99.90;;;;;;5115539;28;20038;-77
2022/02/24 11:30:12;;;;;;;6.57;1.90;;;11.20;99.90;;;;;;5115034;28;20372;-78
2022/02/24 11:32:45;;;;;;;7.57;2.88;;;11.20;99.90;;;;;;5114563;28;20059;-79
2022/02/24 11:35:13;;;;;;;7.57;2.00;;;11.20;99.90;;;;;;5115350;28;20518;-80
2022/02/24 11:37:50;;;;;;;8.55;2.13;;;11.10;99.90;;;;;;5115550;28;20027;-79
2022/02/24 11:40:27;;;;;;;7.05;1.92;;;11.10;99.90;;;;;;5115649;28;20024;-79
2022/02/24 11:43:03;;;;;;;7.55;2.67;;;11.10;99.90;;;;;;5114461;28;20051;-78
2022/02/24 11:45:36;;;;;;;5.53;1.85;;;11.00;99.90;;;;;;5115508;28;20085;-79
2022/02/24 11:48:07;;;;;;;8.48;2.33;;;10.90;99.90;;;;;;5115139;28;20118;-74
2022/02/24 11:50:40;;;;;;;6.57;1.90;;;10.90;99.90;;;;;;5116354;28;20073;-79
2022/02/24 11:53:09;;;;;;;5.03;1.90;;;10.90;99.90;;;;;;5115538;27;20023;-77
2022/02/24 11:55:55;;;;;;;12.27;2.50;;;10.90;99.90;;;;;;5117096;27;20038;-78
2022/02/24 11:58:56;;;;;;;3.92;1.20;;;10.90;99.90;;;;;;5124842;27;20047;-79
2022/02/24 12:01:25;;;;;;;;;;;10.80;99.90;;;;;;5132789;27;20463;-79
2022/02/24 12:04:05;;;;;;;5.70;1.35;;;10.70;99.90;;;;;;5091215;28;20110;-78
2022/02/24 12:06:42;;;;;;;6.15;1.50;;;10.80;99.90;;;;;;5092150;28;20048;-79
2022/02/24 12:09:07;;;;;;;6.07;2.13;;;10.80;99.90;;;;;;5092368;28;20023;-76
2022/02/24 12:11:51;;;;;;;8.23;1.75;;;10.70;99.90;;;;;;5092522;28;20107;-77
2022/02/24 12:14:19;;;;;;;5.63;1.70;;;10.80;99.90;;;;;;5092701;28;20059;-79
2022/02/24 12:17:03;;;;;;;8.43;1.70;;;10.70;99.90;;;;;;5091073;28;20051;-77
2022/02/24 12:19:39;;;;;;;4.35;1.52;;;10.60;99.90;;;;;;5091759;28;20024;-77
2022/02/24 12:22:27;;;;;;;4.68;1.65;;;10.50;99.90;;;;;;5090628;28;20028;-79
2022/02/24 12:25:13;;;;;;;4.53;1.77;;;10.40;99.90;;;;;;5090502;28;20050;-78
2022/02/24 12:27:42;;;;;;;5.57;1.35;;;10.40;99.90;;;;;;5091174;28;20029;-78
2022/02/24 12:30:11;;;;;;;2.70;1.35;;;10.30;99.90;;;;;;5091050;28;20029;-78
2022/02/24 12:32:57;;;;;;;6.82;1.40;;;10.20;99.90;;;;;;5090885;28;20056;-78
2022/02/24 12:35:25;;;;;;;9.40;1.83;;;10.20;99.90;;;;;;5091012;28;20166;-77
2022/02/24 12:37:51;;;;;;;5.93;3.38;;;10.00;99.90;;;;;;5090471;28;20038;-78
2022/02/24 12:40:26;;;;;;;7.43;2.10;;;10.00;99.90;;;;;;5087508;28;20021;-76
2022/02/24 12:42:52;;;;;;;10.02;2.97;;;10.00;99.90;;;;;;5087712;28;20036;-75
2022/02/24 12:45:19;;;;;;;8.15;2.38;;;9.90;99.90;;;;;;5087477;28;20032;-76
2022/02/24 12:47:49;;;;;;;6.82;2.17;;;9.80;99.90;;;;;;5082885;28;20088;-75
2022/02/24 12:50:23;;;;;;;11.37;2.53;;;9.70;99.90;;;;;;5071243;28;20044;-75